SBOSBO VRN / LIPX
Speedbird OnlineSpeedbird Online VRN / LIPX

Verona Villafranca Airport
18:52 19.6°C

Location Villafranca, Italy
Latitude: 45.395699
Longitude: 10.8885
Local Time 18:53 on 30 May 2024
UTC +2 hours (Europe/Rome)
Currency £1 equals EUR 1.18
METAR LIPX 301620Z 10006KT 070V130 9999 BKN070 20/16 Q1004
TAF TAF LIPX 301100Z 3012/3112 08010KT 9999 SCT040 TEMPO 3017/3106 3000 TSRA BECMG 3020/3022 VRB05KT BECMG 3108/3110 28012KT
Weather As Of 30 May 2024 18:53
Description Light rain
Wind 11 km/h from East (100°)
Cloud Cover 75%
Precipitation Rain: none, Snow: none
Sunrise 05:32
Sunset 20:55
NOTAM 16 active NOTAM
Rotations During the last 90 days there were
80 flights from LGW
79 flights to LGW
Lounges Catullo Club Lounge (Temporarily Closed), Departure Terminal
Web Airport Website | Wikipedia
Codes IATA: VRN
ICAO: LIPX
Altitude 73 Meter / 239 Feet
Distance 1,043 KM / 648 Miles
from London.
Runways
RunwayLength (m)Surface
043068Asphalt
223068Asphalt
Radio
TypeDescriptionFrequency
APPGARDA APP124.45
APPGARDA APP36.23
GNDGND121.75
INFOPADOVA INFO123.25
TWRTWR118.65
Live ATC



Support Speedbird Online

© 2017-2024 Speedbird Online